createdAt,value
2022-09-15T00:02:21.880Z,58.17
2022-09-15T00:05:24.052Z,57.62
2022-09-15T00:08:26.464Z,57.69
2022-09-15T00:11:31.758Z,57.38
2022-09-15T00:14:33.907Z,58.44
2022-09-15T00:17:35.868Z,57.40
2022-09-15T00:20:45.522Z,58.18
2022-09-15T00:23:48.767Z,57.46
2022-09-15T00:26:50.850Z,58.18
2022-09-15T00:29:52.926Z,57.36
2022-09-15T00:32:54.920Z,58.67
2022-09-15T00:35:57.045Z,57.57
2022-09-15T00:38:59.308Z,57.78
2022-09-15T00:42:01.355Z,58.40
2022-09-15T00:45:04.403Z,58.51
2022-09-15T00:48:10.410Z,57.60
2022-09-15T00:51:16.370Z,58.49
2022-09-15T00:54:25.316Z,57.49
2022-09-15T00:57:35.839Z,57.85
2022-09-15T01:00:41.182Z,57.63
2022-09-15T01:03:43.883Z,57.70
2022-09-15T01:06:52.808Z,57.89
2022-09-15T01:09:59.171Z,58.52
2022-09-15T01:13:07.010Z,57.55
2022-09-15T01:16:27.715Z,58.59
2022-09-15T01:19:55.350Z,57.38
2022-09-15T01:22:57.286Z,58.85
2022-09-15T01:26:09.206Z,59.04
2022-09-15T01:29:40.719Z,58.18
2022-09-15T01:33:14.167Z,58.13
2022-09-15T01:36:25.337Z,58.28
2022-09-15T01:39:35.199Z,58.97
2022-09-15T01:42:38.872Z,58.55
2022-09-15T01:45:45.489Z,58.08
2022-09-15T01:48:50.714Z,58.46
2022-09-15T01:51:54.938Z,58.77
2022-09-15T01:55:01.939Z,58.06
2022-09-15T01:58:04.017Z,58.45
2022-09-15T02:01:34.952Z,58.37
2022-09-15T02:04:54.662Z,58.89
2022-09-15T02:08:05.209Z,58.61
2022-09-15T02:11:16.269Z,59.25
2022-09-15T02:14:43.678Z,59.33
2022-09-15T02:17:54.279Z,58.06
2022-09-15T02:21:08.283Z,58.08
2022-09-15T02:24:19.294Z,59.19
2022-09-15T02:27:25.340Z,58.85
2022-09-15T02:30:29.684Z,58.61
2022-09-15T02:33:39.374Z,58.07
2022-09-15T02:36:42.565Z,58.90
2022-09-15T02:39:49.782Z,58.26
2022-09-15T02:42:57.747Z,58.03
2022-09-15T02:46:00.574Z,58.23
2022-09-15T02:49:03.101Z,58.38
2022-09-15T02:52:05.158Z,58.15
2022-09-15T02:55:07.572Z,59.18
2022-09-15T02:58:09.469Z,58.63
2022-09-15T03:01:17.475Z,59.22
2022-09-15T03:04:19.884Z,58.75
2022-09-15T03:07:21.963Z,58.93
2022-09-15T03:10:25.608Z,59.06
2022-09-15T03:13:27.707Z,59.47
2022-09-15T03:16:31.837Z,59.23
2022-09-15T03:19:33.875Z,59.30
2022-09-15T03:22:36.388Z,59.02
2022-09-15T03:25:38.698Z,58.96
2022-09-15T03:28:41.693Z,59.42
2022-09-15T03:31:44.329Z,59.10
2022-09-15T03:34:46.551Z,58.46
2022-09-15T03:37:48.659Z,59.44
2022-09-15T03:41:06.638Z,59.24
2022-09-15T03:44:08.658Z,58.86
2022-09-15T03:47:10.838Z,59.75
2022-09-15T03:50:13.039Z,58.72
2022-09-15T03:53:15.257Z,59.11
2022-09-15T03:56:22.889Z,58.91
2022-09-15T03:59:25.037Z,59.33
2022-09-15T04:02:27.147Z,60.00
2022-09-15T04:05:29.250Z,59.32
2022-09-15T04:08:31.251Z,59.31
2022-09-15T04:11:33.533Z,59.47
2022-09-15T04:14:35.858Z,60.03
2022-09-15T04:17:37.743Z,59.70
2022-09-15T04:20:40.173Z,58.74
2022-09-15T04:23:42.883Z,59.35
2022-09-15T04:26:45.277Z,59.67
2022-09-15T04:29:51.418Z,59.57
2022-09-15T04:32:54.137Z,59.17
2022-09-15T04:36:04.606Z,59.60
2022-09-15T04:39:06.733Z,58.82
2022-09-15T04:42:08.787Z,59.37
2022-09-15T04:45:11.070Z,59.22
2022-09-15T04:48:13.075Z,59.30
2022-09-15T04:51:18.659Z,59.46
2022-09-15T04:54:21.330Z,60.06
2022-09-15T04:57:23.359Z,59.00
2022-09-15T05:00:26.663Z,59.62
2022-09-15T05:03:28.798Z,59.46
2022-09-15T05:06:31.007Z,58.62
2022-09-15T05:09:32.991Z,58.94
2022-09-15T05:12:35.108Z,58.70
2022-09-15T05:15:37.237Z,59.26
2022-09-15T05:18:40.939Z,59.24
2022-09-15T05:21:43.284Z,58.72
2022-09-15T05:24:46.166Z,58.44
2022-09-15T05:27:48.175Z,59.45
2022-09-15T05:30:52.276Z,59.04
2022-09-15T05:33:54.975Z,59.06
2022-09-15T05:36:57.290Z,59.09
2022-09-15T05:39:59.655Z,59.15
2022-09-15T05:43:01.610Z,58.94
2022-09-15T05:46:04.555Z,59.02
2022-09-15T05:49:08.888Z,59.75
2022-09-15T05:52:10.919Z,59.25
2022-09-15T05:55:12.912Z,58.96
2022-09-15T05:58:15.260Z,58.87
2022-09-15T06:01:20.769Z,59.38
2022-09-15T06:04:22.737Z,58.84
2022-09-15T06:07:24.639Z,59.81
2022-09-15T06:10:26.913Z,58.37
2022-09-15T06:13:28.862Z,59.20
2022-09-15T06:16:33.468Z,58.68
2022-09-15T06:19:35.435Z,59.59
2022-09-15T06:22:37.544Z,59.20
2022-09-15T06:25:39.498Z,59.44
2022-09-15T06:28:47.430Z,59.43
2022-09-15T06:31:49.540Z,59.57
2022-09-15T06:34:51.528Z,58.60
2022-09-15T06:37:53.434Z,58.84
2022-09-15T06:40:59.287Z,60.46
2022-09-15T06:44:01.367Z,60.26
2022-09-15T06:47:04.268Z,60.20
2022-09-15T06:50:06.549Z,59.99
2022-09-15T06:53:08.701Z,60.08
2022-09-15T06:56:16.634Z,60.50
2022-09-15T06:59:18.770Z,61.06
2022-09-15T07:02:20.731Z,61.13
2022-09-15T07:05:25.287Z,60.42
2022-09-15T07:08:27.297Z,60.62
2022-09-15T07:11:29.846Z,59.99
2022-09-15T07:14:31.772Z,60.00
2022-09-15T07:17:34.053Z,59.48
2022-09-15T07:20:39.093Z,59.79
2022-09-15T07:23:41.834Z,59.26
2022-09-15T07:26:43.889Z,58.69
2022-09-15T07:29:45.939Z,58.65
2022-09-15T07:32:47.884Z,58.22
2022-09-15T07:35:50.047Z,58.57
2022-09-15T07:38:52.057Z,58.22
2022-09-15T07:41:54.039Z,58.91
2022-09-15T07:44:55.981Z,59.09
2022-09-15T07:47:57.920Z,58.53
2022-09-15T07:51:02.810Z,58.66
2022-09-15T07:54:04.999Z,60.47
2022-09-15T07:57:07.057Z,59.16
2022-09-15T08:00:09.630Z,59.42
2022-09-15T08:03:15.421Z,60.44
2022-09-15T08:06:22.914Z,61.36
2022-09-15T08:09:24.865Z,60.85
2022-09-15T08:12:27.020Z,59.81
2022-09-15T08:15:28.983Z,59.96
2022-09-15T08:18:30.981Z,58.99
2022-09-15T08:21:33.025Z,59.13
2022-09-15T08:24:35.193Z,59.54
2022-09-15T08:27:37.812Z,60.24
2022-09-15T08:30:39.863Z,60.53
2022-09-15T08:33:45.671Z,60.10
2022-09-15T08:36:47.934Z,60.81
2022-09-15T08:39:49.929Z,59.83
2022-09-15T08:42:55.798Z,59.79
2022-09-15T08:46:06.157Z,59.32
2022-09-15T08:49:23.483Z,58.50
2022-09-15T08:52:40.245Z,58.47
2022-09-15T08:55:49.113Z,59.02
2022-09-15T08:58:51.098Z,59.05
2022-09-15T09:01:53.027Z,57.99
2022-09-15T09:05:29.674Z,58.44
2022-09-15T09:08:56.232Z,58.37
2022-09-15T09:12:32.374Z,59.42
2022-09-15T09:15:53.102Z,59.08
2022-09-15T09:19:13.267Z,58.73
2022-09-15T09:22:17.927Z,58.50
2022-09-15T09:25:27.613Z,59.78
2022-09-15T09:28:32.710Z,59.62
2022-09-15T09:31:36.571Z,61.88
2022-09-15T09:34:47.189Z,62.26
2022-09-15T09:37:51.111Z,62.53
2022-09-15T09:40:53.339Z,62.79
2022-09-15T09:43:56.537Z,61.82
2022-09-15T09:46:59.765Z,62.39
2022-09-15T09:50:02.337Z,61.48
2022-09-15T09:53:26.435Z,61.93
2022-09-15T09:56:28.438Z,61.20
2022-09-15T09:59:33.780Z,61.24
2022-09-15T10:02:47.138Z,60.82
2022-09-15T10:06:01.399Z,60.28
2022-09-15T10:09:15.050Z,59.40
2022-09-15T10:12:23.131Z,59.31
2022-09-15T10:15:34.373Z,59.13
2022-09-15T10:18:38.914Z,58.16
2022-09-15T10:21:40.969Z,58.04
2022-09-15T10:24:43.020Z,57.78
2022-09-15T10:27:45.433Z,57.33
2022-09-15T10:31:01.307Z,56.67
2022-09-15T10:34:25.520Z,56.79
2022-09-15T10:37:29.891Z,56.74
2022-09-15T10:40:39.246Z,57.00
2022-09-15T10:44:19.139Z,57.18
2022-09-15T10:47:52.554Z,58.42
2022-09-15T10:50:57.665Z,57.63
2022-09-15T10:54:05.367Z,58.08
2022-09-15T10:57:16.203Z,57.57
2022-09-15T11:00:24.156Z,58.12
2022-09-15T11:03:26.250Z,57.75
2022-09-15T11:06:43.470Z,56.95
2022-09-15T11:09:54.308Z,57.08
2022-09-15T11:13:08.435Z,56.96
2022-09-15T11:16:10.323Z,56.72
2022-09-15T11:19:21.621Z,56.87
2022-09-15T11:22:31.483Z,56.03
2022-09-15T11:25:38.930Z,56.18
2022-09-15T11:28:48.178Z,55.98
2022-09-15T11:31:57.209Z,55.77
2022-09-15T11:35:30.009Z,56.62
2022-09-15T11:38:38.131Z,55.62
2022-09-15T11:41:49.738Z,55.28
2022-09-15T11:44:51.877Z,55.42
2022-09-15T11:47:59.275Z,55.40
2022-09-15T11:51:03.355Z,55.26
2022-09-15T11:54:21.184Z,55.17
2022-09-15T11:57:32.245Z,55.34
2022-09-15T12:00:38.537Z,55.94
2022-09-15T12:03:46.272Z,55.50
2022-09-15T12:06:54.509Z,56.28
2022-09-15T12:10:14.527Z,55.89
2022-09-15T12:13:19.622Z,56.58
2022-09-15T12:16:23.018Z,55.22
2022-09-15T12:19:34.434Z,55.56
2022-09-15T12:22:44.735Z,55.26
2022-09-15T12:26:14.338Z,55.44
2022-09-15T12:29:22.381Z,55.54
2022-09-15T12:32:33.453Z,55.72
2022-09-15T12:35:35.942Z,55.18
2022-09-15T12:38:38.172Z,55.91
2022-09-15T12:41:48.076Z,55.68
2022-09-15T12:45:01.247Z,55.81
2022-09-15T12:48:12.067Z,55.81
2022-09-15T12:51:22.620Z,55.77
2022-09-15T12:54:31.268Z,56.13
2022-09-15T12:57:36.479Z,55.71
2022-09-15T13:01:06.886Z,55.48
2022-09-15T13:04:04.633Z,55.01
2022-09-15T13:07:15.905Z,55.81
2022-09-15T13:10:33.975Z,55.48
2022-09-15T13:13:56.823Z,55.16
2022-09-15T13:17:12.862Z,54.67
2022-09-15T13:20:20.923Z,55.47
2022-09-15T13:23:25.699Z,55.42
2022-09-15T13:26:32.046Z,55.96
2022-09-15T13:29:43.696Z,55.53
2022-09-15T13:33:08.462Z,55.95
2022-09-15T13:40:34.609Z,56.70
2022-09-15T13:44:13.731Z,56.89
2022-09-15T13:47:47.480Z,56.72
2022-09-15T13:51:01.073Z,56.97
2022-09-15T13:54:07.267Z,57.29
2022-09-15T13:57:09.735Z,57.09
2022-09-15T14:00:45.916Z,56.43
2022-09-15T14:03:52.805Z,56.94
2022-09-15T14:07:00.216Z,56.28
2022-09-15T14:10:04.121Z,56.53
2022-09-15T14:13:06.317Z,56.50
2022-09-15T14:16:40.416Z,56.62
2022-09-15T14:19:44.847Z,57.13
2022-09-15T14:22:50.092Z,56.86
2022-09-15T14:25:52.328Z,56.83
2022-09-15T14:29:00.470Z,56.87
2022-09-15T14:32:04.058Z,56.44
2022-09-15T14:35:09.465Z,56.80
2022-09-15T14:38:22.849Z,56.67
2022-09-15T14:41:24.774Z,56.54
2022-09-15T14:48:02.250Z,56.67
2022-09-15T14:51:28.756Z,57.11
2022-09-15T14:54:37.532Z,56.64
2022-09-15T15:01:15.925Z,56.26
2022-09-15T15:04:36.540Z,56.90
2022-09-15T15:07:39.769Z,56.95
2022-09-15T15:10:42.018Z,57.13
2022-09-15T15:13:48.771Z,57.17
2022-09-15T15:16:53.853Z,57.70
2022-09-15T15:20:08.160Z,58.00
2022-09-15T15:23:23.569Z,57.83
2022-09-15T15:26:34.446Z,57.76
2022-09-15T15:29:44.129Z,58.06
2022-09-15T15:32:46.214Z,58.33
2022-09-15T15:36:04.650Z,58.00
2022-09-15T15:39:08.036Z,58.23
2022-09-15T15:42:15.461Z,57.99
2022-09-15T15:45:30.630Z,58.20
2022-09-15T15:48:37.906Z,58.25
2022-09-15T15:51:41.537Z,58.36
2022-09-15T15:54:43.855Z,58.48
2022-09-15T15:57:50.206Z,58.59
2022-09-15T16:00:54.681Z,58.44
2022-09-15T16:03:56.799Z,59.40
2022-09-15T16:06:58.780Z,58.99
2022-09-15T16:10:01.533Z,59.38
2022-09-15T16:13:03.609Z,59.43
2022-09-15T16:16:25.959Z,58.99
2022-09-15T16:19:28.027Z,59.47
2022-09-15T16:22:30.200Z,59.16
2022-09-15T16:25:56.654Z,59.55
2022-09-15T16:28:58.637Z,59.87
2022-09-15T16:32:10.283Z,59.95
2022-09-15T16:35:24.306Z,59.70
2022-09-15T16:38:28.278Z,59.58
2022-09-15T16:41:30.243Z,59.55
2022-09-15T16:44:32.253Z,59.37
2022-09-15T16:47:34.185Z,60.21
2022-09-15T16:50:39.756Z,59.76
2022-09-15T16:53:42.107Z,59.89
2022-09-15T16:56:45.714Z,59.98
2022-09-15T16:59:47.694Z,59.86
2022-09-15T17:02:49.772Z,60.70
2022-09-15T17:05:54.087Z,60.67
2022-09-15T17:08:56.070Z,59.92
2022-09-15T17:11:58.018Z,59.85
2022-09-15T17:14:59.935Z,60.38
2022-09-15T17:18:02.458Z,60.38
2022-09-15T17:21:05.043Z,59.81
2022-09-15T17:24:09.090Z,59.88
2022-09-15T17:27:12.411Z,60.13
2022-09-15T17:30:14.610Z,60.24
2022-09-15T17:33:18.337Z,60.04
2022-09-15T17:36:20.550Z,60.94
2022-09-15T17:39:23.119Z,60.35
2022-09-15T17:42:25.322Z,60.53
2022-09-15T17:45:36.911Z,60.72
2022-09-15T17:48:39.175Z,60.74
2022-09-15T17:51:41.231Z,60.09
2022-09-15T17:54:43.175Z,60.17
2022-09-15T17:57:45.601Z,60.02
2022-09-15T18:00:49.231Z,60.45
2022-09-15T18:03:51.300Z,59.73
2022-09-15T18:06:54.084Z,59.75
2022-09-15T18:09:56.442Z,60.64
2022-09-15T18:12:58.858Z,59.94
2022-09-15T18:16:11.640Z,60.45
2022-09-15T18:19:13.714Z,59.96
2022-09-15T18:22:15.734Z,60.88
2022-09-15T18:25:28.437Z,59.85
2022-09-15T18:28:30.435Z,60.81
2022-09-15T18:31:32.372Z,60.41
2022-09-15T18:34:34.505Z,60.55
2022-09-15T18:37:37.540Z,60.47
2022-09-15T18:40:44.514Z,60.52
2022-09-15T18:43:49.380Z,60.56
2022-09-15T18:46:51.471Z,61.05
2022-09-15T18:49:54.210Z,60.51
2022-09-15T18:52:56.441Z,60.77
2022-09-15T18:55:58.441Z,61.10
2022-09-15T18:59:00.427Z,60.36
2022-09-15T19:02:02.546Z,60.53
2022-09-15T19:05:05.382Z,60.88
2022-09-15T19:08:09.357Z,60.71
2022-09-15T19:11:11.445Z,61.54
2022-09-15T19:14:13.507Z,61.49
2022-09-15T19:17:15.540Z,60.21
2022-09-15T19:20:18.479Z,61.23
2022-09-15T19:23:20.426Z,61.06
2022-09-15T19:26:23.760Z,61.11
2022-09-15T19:29:26.309Z,60.15
2022-09-15T19:32:28.357Z,60.36
2022-09-15T19:35:30.478Z,61.00
2022-09-15T19:38:33.778Z,61.18
2022-09-15T19:41:35.806Z,60.99
2022-09-15T19:44:38.329Z,61.54
2022-09-15T19:47:41.142Z,61.54
2022-09-15T19:50:43.256Z,62.11
2022-09-15T19:53:46.294Z,61.88
2022-09-15T19:56:48.342Z,62.11
2022-09-15T19:59:50.960Z,61.27
2022-09-15T20:02:52.959Z,61.56
2022-09-15T20:06:00.228Z,61.78
2022-09-15T20:09:03.144Z,61.52
2022-09-15T20:12:05.368Z,60.54
2022-09-15T20:15:08.090Z,61.14
2022-09-15T20:18:12.729Z,60.47
2022-09-15T20:21:45.863Z,61.13
2022-09-15T20:24:47.458Z,60.73
2022-09-15T20:27:52.660Z,61.21
2022-09-15T20:31:10.111Z,61.48
2022-09-15T20:34:12.440Z,60.79
2022-09-15T20:37:14.737Z,61.53
2022-09-15T20:40:17.805Z,60.67
2022-09-15T20:43:19.939Z,61.33
2022-09-15T20:46:23.541Z,61.27
2022-09-15T20:49:25.827Z,60.65
2022-09-15T20:52:33.606Z,61.61
2022-09-15T20:55:39.788Z,61.01
2022-09-15T20:58:42.085Z,61.16
2022-09-15T21:01:44.306Z,61.21
2022-09-15T21:04:47.049Z,60.19
2022-09-15T21:07:49.125Z,60.14
2022-09-15T21:10:51.237Z,60.92
2022-09-15T21:13:54.673Z,60.95
2022-09-15T21:16:56.704Z,61.06
2022-09-15T21:19:58.846Z,60.05
2022-09-15T21:23:00.971Z,61.11
2022-09-15T21:26:06.518Z,61.06
2022-09-15T21:29:08.528Z,61.60
2022-09-15T21:32:10.749Z,61.18
2022-09-15T21:35:12.971Z,61.82
2022-09-15T21:38:16.551Z,61.28
2022-09-15T21:41:23.516Z,61.92
2022-09-15T21:44:25.726Z,61.03
2022-09-15T21:47:27.967Z,61.37
2022-09-15T21:50:30.106Z,61.25
2022-09-15T21:53:32.513Z,60.81
2022-09-15T21:56:34.395Z,61.01
2022-09-15T21:59:36.547Z,60.96
2022-09-15T22:02:38.712Z,61.26
2022-09-15T22:05:42.649Z,60.71
2022-09-15T22:08:44.964Z,60.85
2022-09-15T22:11:47.856Z,60.20
2022-09-15T22:14:49.950Z,60.44
2022-09-15T22:17:52.720Z,61.67
2022-09-15T22:21:21.054Z,60.69
2022-09-15T22:24:23.407Z,60.57
2022-09-15T22:27:25.876Z,60.82
2022-09-15T22:30:27.913Z,60.65
2022-09-15T22:33:30.388Z,60.30
2022-09-15T22:36:32.846Z,60.55
2022-09-15T22:39:57.297Z,60.40
2022-09-15T22:42:57.093Z,60.44
2022-09-15T22:45:59.861Z,60.99
2022-09-15T22:49:02.033Z,60.32
2022-09-15T22:52:04.494Z,59.84
2022-09-15T22:55:07.076Z,59.99
2022-09-15T22:58:09.392Z,60.24
2022-09-15T23:01:14.392Z,60.12
2022-09-15T23:04:16.949Z,60.54
2022-09-15T23:07:19.191Z,59.95
2022-09-15T23:10:21.396Z,60.83
2022-09-15T23:13:23.773Z,60.71
2022-09-15T23:16:26.554Z,60.90
2022-09-15T23:19:28.814Z,60.36
2022-09-15T23:22:30.983Z,60.56
2022-09-15T23:25:33.121Z,60.88
2022-09-15T23:28:35.325Z,61.01
2022-09-15T23:31:37.464Z,61.31
2022-09-15T23:34:39.627Z,60.56
2022-09-15T23:37:42.378Z,60.77
2022-09-15T23:40:45.715Z,60.72
2022-09-15T23:43:47.951Z,60.63
2022-09-15T23:46:50.163Z,60.37
2022-09-15T23:49:52.289Z,60.82
2022-09-15T23:52:54.316Z,60.47
2022-09-15T23:55:56.383Z,60.69
2022-09-15T23:58:58.531Z,60.21
